SASA/SLA METAR and TAF weather

Enter ICAO airport designator
Station Type Date Time Source
SASA METAR 2020/01/27 17:00 UTC NOAA

SASA 271700Z 05006KT 9999 SCT020TCU SCT040CB 26/16 Q1019


Station Type Date Time Source
SASA Decoded METAR 2020/01/27 17:00 UTC NOAA

Salta Aerodrome, Argentina (SASA) 24-51S 065-29W 1221M
Jan 27, 2020 - 12:00 PM EST / 2020.01.27 1700 UTC
Wind: from the NE (050 degrees) at 7 MPH (6 KT):0
Visibility: greater than 7 mile(s):0
Sky conditions: partly cloudy
Weather: Cumulonimbus clouds, towering cumulus clouds observed
Temperature: 78 F (26 C)
Dew Point: 60 F (16 C)
Relative Humidity: 54%
Pressure (altimeter): 30.09 in. Hg (1019 hPa)
ob: SASA 271700Z 05006KT 9999 SCT020TCU SCT040CB 26/16 Q1019
cycle: 17

Station Type Date Time Source
SASA TAF 2020/01/27 12:24 UTC NOAA

TAF SASA 271100Z 2712/2812 36005KT 6000 TSRA FEW004 BKN020 FEW040CB TX24/2719Z TN15/2810Z
BECMG 2712/2715 05005KT 9999 NSW BKN025 PROB40 2723/2802 18005KT 7000 RA SCT010 OVC020

Example: see airport list